createdAt,value
2023-01-29T00:02:05.547Z,76.89
2023-01-29T00:04:32.431Z,77.12
2023-01-29T00:06:59.030Z,77.01
2023-01-29T00:09:27.657Z,76.73
2023-01-29T00:11:54.355Z,77.29
2023-01-29T00:14:21.344Z,76.98
2023-01-29T00:16:47.995Z,76.72
2023-01-29T00:19:14.793Z,76.78
2023-01-29T00:21:41.420Z,76.58
2023-01-29T00:24:08.285Z,76.77
2023-01-29T00:26:36.434Z,76.78
2023-01-29T00:29:03.120Z,77.17
2023-01-29T00:31:29.999Z,76.78
2023-01-29T00:33:56.996Z,77.21
2023-01-29T00:36:25.593Z,77.40
2023-01-29T00:38:54.976Z,77.10
2023-01-29T00:41:22.150Z,76.93
2023-01-29T00:43:50.170Z,76.91
2023-01-29T00:46:16.884Z,76.84
2023-01-29T00:48:43.539Z,77.44
2023-01-29T00:51:10.163Z,77.13
2023-01-29T00:53:36.821Z,77.65
2023-01-29T00:56:03.628Z,77.78
2023-01-29T00:58:30.212Z,77.73
2023-01-29T01:00:58.185Z,77.21
2023-01-29T01:03:24.964Z,77.19
2023-01-29T01:06:02.016Z,77.55
2023-01-29T01:08:28.598Z,77.44
2023-01-29T01:10:59.674Z,77.99
2023-01-29T01:13:26.266Z,77.22
2023-01-29T01:15:53.089Z,77.52
2023-01-29T01:18:21.264Z,77.27
2023-01-29T01:20:48.285Z,77.49
2023-01-29T01:23:14.932Z,78.11
2023-01-29T01:25:41.542Z,78.01
2023-01-29T01:28:08.955Z,77.55
2023-01-29T01:30:35.661Z,77.97
2023-01-29T01:33:02.373Z,78.16
2023-01-29T01:35:30.621Z,77.74
2023-01-29T01:37:57.223Z,78.25
2023-01-29T01:40:26.120Z,77.71
2023-01-29T01:42:54.364Z,77.71
2023-01-29T01:45:25.502Z,77.90
2023-01-29T01:47:55.920Z,77.98
2023-01-29T01:50:26.759Z,77.80
2023-01-29T01:52:59.764Z,78.01
2023-01-29T01:55:29.906Z,78.04
2023-01-29T01:58:02.130Z,78.23
2023-01-29T02:00:28.801Z,78.02
2023-01-29T02:02:55.690Z,77.81
2023-01-29T02:05:22.519Z,77.84
2023-01-29T02:07:51.417Z,78.49
2023-01-29T02:10:20.677Z,77.73
2023-01-29T02:12:47.822Z,78.28
2023-01-29T02:15:14.431Z,78.23
2023-01-29T02:17:41.156Z,78.38
2023-01-29T02:20:18.099Z,78.07
2023-01-29T02:23:18.576Z,78.46
2023-01-29T02:26:08.064Z,78.50
2023-01-29T02:28:44.635Z,78.14
2023-01-29T02:31:21.861Z,78.50
2023-01-29T02:34:00.503Z,78.57
2023-01-29T02:36:36.193Z,78.36
2023-01-29T02:39:13.009Z,78.42
2023-01-29T02:41:44.505Z,78.62
2023-01-29T02:44:20.820Z,78.40
2023-01-29T02:46:56.681Z,78.27
2023-01-29T02:49:31.751Z,78.74
2023-01-29T02:52:03.245Z,78.17
2023-01-29T02:54:37.995Z,78.88
2023-01-29T02:57:10.255Z,78.47
2023-01-29T02:59:42.873Z,78.50
2023-01-29T03:02:12.234Z,78.88
2023-01-29T03:04:43.056Z,78.93
2023-01-29T03:07:15.523Z,78.62
2023-01-29T03:09:48.253Z,78.60
2023-01-29T03:12:22.503Z,78.76
2023-01-29T03:14:51.477Z,78.77
2023-01-29T03:17:20.141Z,79.04
2023-01-29T03:19:48.905Z,78.68
2023-01-29T03:22:17.200Z,78.83
2023-01-29T03:24:47.423Z,78.82
2023-01-29T03:27:18.054Z,79.13
2023-01-29T03:29:46.913Z,79.00
2023-01-29T03:32:16.829Z,79.35
2023-01-29T03:34:48.112Z,79.22
2023-01-29T03:37:21.285Z,79.33
2023-01-29T03:39:48.167Z,79.86
2023-01-29T03:42:22.464Z,80.89
2023-01-29T03:44:57.162Z,81.42
2023-01-29T03:47:32.437Z,81.90
2023-01-29T03:50:03.045Z,81.96
2023-01-29T03:52:40.924Z,82.57
2023-01-29T03:55:14.877Z,82.90
2023-01-29T03:57:45.175Z,83.32
2023-01-29T04:00:16.460Z,83.12
2023-01-29T04:02:51.055Z,83.65
2023-01-29T04:05:21.223Z,83.72
2023-01-29T04:07:52.632Z,83.49
2023-01-29T04:10:22.831Z,83.67
2023-01-29T04:12:55.041Z,84.14
2023-01-29T04:15:23.120Z,84.18
2023-01-29T04:17:52.956Z,84.19
2023-01-29T04:20:20.294Z,84.00
2023-01-29T04:22:51.074Z,83.91
2023-01-29T04:25:22.324Z,84.46
2023-01-29T04:27:57.206Z,84.55
2023-01-29T04:30:33.166Z,84.41
2023-01-29T04:33:17.220Z,84.70
2023-01-29T04:35:56.079Z,84.75
2023-01-29T04:38:32.265Z,85.30
2023-01-29T04:41:05.017Z,85.28
2023-01-29T04:43:39.482Z,84.75
2023-01-29T04:46:14.076Z,84.79
2023-01-29T04:48:54.975Z,85.03
2023-01-29T04:51:25.698Z,84.79
2023-01-29T04:54:00.411Z,85.04
2023-01-29T04:56:35.487Z,85.11
2023-01-29T04:59:06.502Z,85.06
2023-01-29T05:01:35.575Z,85.30
2023-01-29T05:04:08.993Z,85.71
2023-01-29T05:06:36.012Z,85.57
2023-01-29T05:09:02.993Z,85.82
2023-01-29T05:11:32.131Z,85.66
2023-01-29T05:14:02.211Z,85.41
2023-01-29T05:16:33.391Z,85.76
2023-01-29T05:18:59.979Z,85.53
2023-01-29T05:21:28.377Z,85.79
2023-01-29T05:24:10.846Z,85.36
2023-01-29T05:26:37.807Z,85.27
2023-01-29T05:29:04.436Z,85.73
2023-01-29T05:31:31.406Z,85.65
2023-01-29T05:33:58.084Z,85.67
2023-01-29T05:36:24.651Z,85.28
2023-01-29T05:38:52.679Z,85.20
2023-01-29T05:41:19.355Z,85.29
2023-01-29T05:43:45.991Z,85.44
2023-01-29T05:46:12.609Z,84.94
2023-01-29T05:48:39.286Z,85.39
2023-01-29T05:51:06.046Z,84.91
2023-01-29T05:53:33.397Z,85.01
2023-01-29T05:56:02.771Z,84.79
2023-01-29T05:58:31.176Z,85.59
2023-01-29T06:00:58.054Z,85.55
2023-01-29T06:03:24.680Z,84.98
2023-01-29T06:05:51.289Z,85.26
2023-01-29T06:08:17.883Z,85.18
2023-01-29T06:10:44.492Z,85.48
2023-01-29T06:13:12.473Z,85.54
2023-01-29T06:15:40.000Z,85.60
2023-01-29T06:18:06.560Z,85.23
2023-01-29T06:20:33.234Z,85.13
2023-01-29T06:23:00.288Z,85.70
2023-01-29T06:25:26.944Z,85.16
2023-01-29T06:27:53.567Z,85.80
2023-01-29T06:30:21.959Z,85.19
2023-01-29T06:32:48.592Z,85.62
2023-01-29T06:35:15.227Z,85.29
2023-01-29T06:37:42.040Z,85.70
2023-01-29T06:40:09.940Z,85.62
2023-01-29T06:42:36.556Z,85.65
2023-01-29T06:45:04.508Z,85.47
2023-01-29T06:47:32.689Z,85.83
2023-01-29T06:49:59.268Z,85.63
2023-01-29T06:52:25.878Z,85.70
2023-01-29T06:54:52.503Z,85.67
2023-01-29T06:57:19.163Z,85.78
2023-01-29T06:59:45.785Z,85.62
2023-01-29T07:02:12.775Z,86.03
2023-01-29T07:04:40.863Z,85.72
2023-01-29T07:07:07.539Z,86.24
2023-01-29T07:09:34.111Z,86.12
2023-01-29T07:12:00.815Z,86.64
2023-01-29T07:14:27.427Z,86.61
2023-01-29T07:16:54.144Z,86.98
2023-01-29T07:19:20.721Z,86.70
2023-01-29T07:21:48.794Z,86.91
2023-01-29T07:24:15.896Z,86.93
2023-01-29T07:26:42.635Z,86.84
2023-01-29T07:29:09.331Z,87.24
2023-01-29T07:31:36.049Z,87.15
2023-01-29T07:34:02.939Z,87.06
2023-01-29T07:36:29.781Z,87.22
2023-01-29T07:38:57.831Z,87.72
2023-01-29T07:41:24.450Z,87.18
2023-01-29T07:43:51.346Z,87.78
2023-01-29T07:46:18.075Z,87.43
2023-01-29T07:48:44.756Z,88.13
2023-01-29T07:51:11.338Z,88.05
2023-01-29T07:53:37.977Z,88.24
2023-01-29T07:56:06.489Z,87.99
2023-01-29T07:58:35.595Z,88.24
2023-01-29T08:01:05.634Z,87.88
2023-01-29T08:03:32.347Z,88.42
2023-01-29T08:05:59.004Z,88.26
2023-01-29T08:08:25.576Z,88.17
2023-01-29T08:10:52.173Z,88.12
2023-01-29T08:13:20.181Z,88.38
2023-01-29T08:15:46.975Z,88.69
2023-01-29T08:18:14.196Z,88.28
2023-01-29T08:20:40.932Z,88.36
2023-01-29T08:23:10.137Z,88.53
2023-01-29T08:25:36.930Z,88.39
2023-01-29T08:28:04.349Z,88.55
2023-01-29T08:30:34.641Z,88.06
2023-01-29T08:33:02.959Z,87.90
2023-01-29T08:35:29.531Z,88.19
2023-01-29T08:37:57.315Z,88.08
2023-01-29T08:40:23.997Z,87.60
2023-01-29T08:42:50.740Z,87.76
2023-01-29T08:45:17.559Z,88.14
2023-01-29T08:47:49.648Z,88.02
2023-01-29T08:50:17.825Z,87.93
2023-01-29T08:52:45.851Z,87.97
2023-01-29T08:55:13.204Z,87.54
2023-01-29T08:57:40.273Z,87.74
2023-01-29T09:00:08.467Z,87.24
2023-01-29T09:02:35.268Z,87.08
2023-01-29T09:05:03.492Z,87.38
2023-01-29T09:07:30.481Z,86.86
2023-01-29T09:09:57.106Z,87.37
2023-01-29T09:12:23.776Z,87.44
2023-01-29T09:14:50.437Z,86.89
2023-01-29T09:17:17.058Z,87.10
2023-01-29T09:19:43.656Z,86.70
2023-01-29T09:22:12.009Z,86.43
2023-01-29T09:24:38.754Z,86.55
2023-01-29T09:27:05.592Z,86.39
2023-01-29T09:29:34.688Z,86.44
2023-01-29T09:32:03.447Z,86.27
2023-01-29T09:34:30.179Z,85.89
2023-01-29T09:36:56.953Z,86.01
2023-01-29T09:39:25.126Z,85.62
2023-01-29T09:41:59.782Z,85.75
2023-01-29T09:44:46.236Z,85.29
2023-01-29T09:47:16.084Z,85.53
2023-01-29T09:49:47.167Z,85.12
2023-01-29T09:52:19.090Z,85.13
2023-01-29T09:54:54.849Z,84.46
2023-01-29T09:57:30.580Z,84.16
2023-01-29T09:59:57.451Z,83.58
2023-01-29T10:02:43.079Z,83.71
2023-01-29T10:05:19.574Z,83.10
2023-01-29T10:08:18.942Z,83.11
2023-01-29T10:10:51.355Z,82.15
2023-01-29T10:13:32.725Z,82.37
2023-01-29T10:16:12.292Z,82.24
2023-01-29T10:18:52.996Z,81.93
2023-01-29T10:21:52.314Z,81.78
2023-01-29T10:24:31.978Z,81.39
2023-01-29T10:27:01.873Z,81.42
2023-01-29T10:29:31.602Z,81.22
2023-01-29T10:32:02.529Z,80.91
2023-01-29T10:34:35.121Z,80.11
2023-01-29T10:37:10.816Z,80.44
2023-01-29T10:39:37.640Z,79.56
2023-01-29T10:42:17.518Z,78.76
2023-01-29T10:45:07.027Z,78.81
2023-01-29T10:47:57.904Z,79.47
2023-01-29T10:50:41.411Z,78.42
2023-01-29T10:53:27.330Z,78.28
2023-01-29T10:56:14.066Z,77.88
2023-01-29T10:58:51.546Z,77.99
2023-01-29T11:01:18.328Z,76.93
2023-01-29T11:03:45.175Z,77.60
2023-01-29T11:06:17.873Z,76.47
2023-01-29T11:08:52.563Z,76.36
2023-01-29T11:11:22.197Z,77.01
2023-01-29T11:13:54.845Z,76.93
2023-01-29T11:16:21.640Z,76.55
2023-01-29T11:18:50.477Z,75.93
2023-01-29T11:21:17.214Z,75.43
2023-01-29T11:23:43.910Z,75.63
2023-01-29T11:26:13.721Z,76.16
2023-01-29T11:28:42.432Z,75.96
2023-01-29T11:31:18.892Z,75.95
2023-01-29T11:33:46.326Z,75.21
2023-01-29T11:36:30.086Z,75.26
2023-01-29T11:39:13.792Z,75.18
2023-01-29T11:41:44.214Z,75.58
2023-01-29T11:44:26.506Z,74.95
2023-01-29T11:46:55.734Z,74.81
2023-01-29T11:49:30.789Z,74.96
2023-01-29T11:52:00.687Z,74.98
2023-01-29T11:54:31.663Z,74.59
2023-01-29T11:56:59.285Z,74.46
2023-01-29T11:59:37.871Z,73.93
2023-01-29T12:02:19.542Z,74.18
2023-01-29T12:04:47.951Z,74.83
2023-01-29T12:07:17.878Z,74.91
2023-01-29T12:09:49.780Z,74.18
2023-01-29T12:12:29.324Z,74.30
2023-01-29T12:15:15.587Z,74.49
2023-01-29T12:17:51.406Z,74.04
2023-01-29T12:20:23.187Z,74.61
2023-01-29T12:22:56.420Z,74.29
2023-01-29T12:25:35.052Z,73.84
2023-01-29T12:28:09.668Z,74.18
2023-01-29T12:30:46.164Z,73.78
2023-01-29T12:33:23.929Z,73.80
2023-01-29T12:35:56.442Z,73.72
2023-01-29T12:38:24.497Z,73.82
2023-01-29T12:40:55.129Z,73.43
2023-01-29T12:43:27.609Z,73.73
2023-01-29T12:45:57.000Z,73.70
2023-01-29T12:48:30.140Z,74.25
2023-01-29T12:51:04.645Z,74.35
2023-01-29T12:53:35.163Z,74.36
2023-01-29T12:56:05.970Z,74.20
2023-01-29T12:58:38.142Z,74.11
2023-01-29T13:01:14.156Z,74.45
2023-01-29T13:03:51.549Z,74.60
2023-01-29T13:06:22.364Z,74.59
2023-01-29T13:08:51.896Z,74.96
2023-01-29T13:11:24.691Z,74.81
2023-01-29T13:13:56.556Z,75.44
2023-01-29T13:16:27.736Z,75.31
2023-01-29T13:18:58.204Z,75.67
2023-01-29T13:21:29.116Z,75.50
2023-01-29T13:24:00.124Z,75.99
2023-01-29T13:26:26.983Z,75.28
2023-01-29T13:28:54.876Z,75.87
2023-01-29T13:31:29.358Z,75.49
2023-01-29T13:34:14.023Z,76.02
2023-01-29T13:36:43.596Z,75.95
2023-01-29T13:39:22.505Z,76.40
2023-01-29T13:41:50.836Z,76.25
2023-01-29T13:44:24.130Z,76.78
2023-01-29T13:46:55.832Z,76.95
2023-01-29T13:49:29.424Z,77.67
2023-01-29T13:51:57.445Z,78.51
2023-01-29T13:54:26.653Z,78.50
2023-01-29T13:57:01.203Z,79.24
2023-01-29T13:59:50.409Z,80.28
2023-01-29T14:02:25.739Z,80.63
2023-01-29T14:05:32.307Z,81.17
2023-01-29T14:07:59.546Z,81.51
2023-01-29T14:10:27.644Z,81.99
2023-01-29T14:12:55.556Z,82.15
2023-01-29T14:15:30.999Z,82.33
2023-01-29T14:18:14.655Z,82.28
2023-01-29T14:20:51.561Z,82.63
2023-01-29T14:23:32.436Z,82.79
2023-01-29T14:26:01.681Z,82.82
2023-01-29T14:28:30.782Z,83.28
2023-01-29T14:30:58.028Z,83.48
2023-01-29T14:33:28.634Z,83.69
2023-01-29T14:35:58.281Z,84.05
2023-01-29T14:38:27.682Z,83.90
2023-01-29T14:41:05.739Z,84.18
2023-01-29T14:43:32.387Z,84.33
2023-01-29T14:46:42.761Z,84.73
2023-01-29T14:49:09.523Z,84.65
2023-01-29T14:51:41.775Z,84.91
2023-01-29T14:54:21.180Z,84.90
2023-01-29T14:56:56.804Z,85.22
2023-01-29T14:59:30.639Z,85.10
2023-01-29T15:02:02.640Z,84.96
2023-01-29T15:04:35.875Z,85.38
2023-01-29T15:07:12.785Z,85.58
2023-01-29T15:09:45.715Z,85.42
2023-01-29T15:12:21.466Z,85.68
2023-01-29T15:14:56.807Z,85.52
2023-01-29T15:17:28.156Z,85.43
2023-01-29T15:19:55.070Z,85.50
2023-01-29T15:22:24.701Z,85.58
2023-01-29T15:25:04.414Z,85.88
2023-01-29T15:27:31.310Z,85.91
2023-01-29T15:30:01.195Z,85.67
2023-01-29T15:32:33.114Z,85.50
2023-01-29T15:35:00.529Z,85.62
2023-01-29T15:37:31.608Z,85.94
2023-01-29T15:39:59.602Z,85.75
2023-01-29T15:42:27.797Z,86.18
2023-01-29T15:44:54.885Z,86.01
2023-01-29T15:47:25.566Z,86.18
2023-01-29T15:49:52.708Z,86.27
2023-01-29T15:52:23.359Z,86.16
2023-01-29T15:54:51.989Z,86.33
2023-01-29T15:57:22.800Z,86.16
2023-01-29T15:59:50.788Z,86.18
2023-01-29T16:02:41.923Z,86.06
2023-01-29T16:05:15.495Z,86.03
2023-01-29T16:07:43.383Z,85.89
2023-01-29T16:10:18.844Z,85.57
2023-01-29T16:12:46.634Z,85.95
2023-01-29T16:15:23.257Z,85.58
2023-01-29T16:17:50.104Z,85.13
2023-01-29T16:20:30.780Z,85.51
2023-01-29T16:22:58.202Z,85.59
2023-01-29T16:25:29.314Z,85.74
2023-01-29T16:27:56.696Z,85.33
2023-01-29T16:30:26.661Z,85.61
2023-01-29T16:33:00.424Z,85.52
2023-01-29T16:35:27.260Z,84.98
2023-01-29T16:37:59.644Z,85.22
2023-01-29T16:40:29.751Z,85.24
2023-01-29T16:43:31.301Z,84.86
2023-01-29T16:46:05.563Z,84.63
2023-01-29T16:48:34.083Z,84.85
2023-01-29T16:51:05.071Z,84.38
2023-01-29T16:53:32.104Z,84.23
2023-01-29T16:56:05.814Z,84.25
2023-01-29T16:58:32.707Z,84.28
2023-01-29T17:01:02.641Z,83.82
2023-01-29T17:03:33.271Z,83.85
2023-01-29T17:06:08.367Z,83.53
2023-01-29T17:08:35.365Z,83.87
2023-01-29T17:11:03.929Z,83.73
2023-01-29T17:13:36.537Z,83.52
2023-01-29T17:16:15.955Z,83.76
2023-01-29T17:18:43.119Z,83.48
2023-01-29T17:21:09.786Z,83.80
2023-01-29T17:23:36.633Z,83.42
2023-01-29T17:26:05.974Z,83.80
2023-01-29T17:28:33.627Z,83.62
2023-01-29T17:31:06.179Z,83.44
2023-01-29T17:33:34.053Z,83.65
2023-01-29T17:36:00.979Z,83.77
2023-01-29T17:38:27.720Z,83.51
2023-01-29T17:40:57.562Z,83.55
2023-01-29T17:43:25.710Z,83.36
2023-01-29T17:45:52.439Z,83.14
2023-01-29T17:48:22.293Z,83.38
2023-01-29T17:50:51.308Z,83.31
2023-01-29T17:53:18.211Z,83.45
2023-01-29T17:55:44.878Z,83.43
2023-01-29T17:58:17.813Z,83.33
2023-01-29T18:00:46.453Z,83.22
2023-01-29T18:03:13.277Z,83.45
2023-01-29T18:05:40.898Z,83.37
2023-01-29T18:08:14.292Z,83.34
2023-01-29T18:10:40.742Z,83.56
2023-01-29T18:13:07.573Z,83.13
2023-01-29T18:15:34.422Z,83.44
2023-01-29T18:18:02.615Z,83.20
2023-01-29T18:20:29.412Z,83.18
2023-01-29T18:22:56.206Z,83.36
2023-01-29T18:25:24.830Z,83.26
2023-01-29T18:27:52.551Z,83.37
2023-01-29T18:30:19.258Z,83.08
2023-01-29T18:32:46.026Z,83.10
2023-01-29T18:35:14.612Z,83.28
2023-01-29T18:37:41.564Z,83.14
2023-01-29T18:40:09.687Z,82.71
2023-01-29T18:42:36.604Z,82.64
2023-01-29T18:45:03.828Z,82.70
2023-01-29T18:47:30.555Z,82.54
2023-01-29T18:49:57.400Z,82.44
2023-01-29T18:52:25.888Z,82.17
2023-01-29T18:54:52.804Z,82.27
2023-01-29T18:58:27.338Z,82.44
2023-01-29T19:00:07.712Z,82.29
2023-01-29T19:02:34.501Z,82.30
2023-01-29T19:05:01.262Z,82.19
2023-01-29T19:07:29.654Z,81.69
2023-01-29T19:09:56.419Z,82.34
2023-01-29T19:12:23.682Z,82.03
2023-01-29T19:14:50.411Z,82.20
2023-01-29T19:17:17.324Z,81.96
2023-01-29T19:19:44.241Z,81.49
2023-01-29T19:22:11.060Z,81.92
2023-01-29T19:24:39.162Z,81.56
2023-01-29T19:27:06.086Z,81.71
2023-01-29T19:29:32.937Z,81.42
2023-01-29T19:31:59.671Z,81.45
2023-01-29T19:34:26.401Z,81.37
2023-01-29T19:36:53.144Z,81.19
2023-01-29T19:39:19.864Z,81.30
2023-01-29T19:41:48.010Z,80.95
2023-01-29T19:44:14.708Z,81.24
2023-01-29T19:46:41.363Z,81.08
2023-01-29T19:49:08.161Z,80.74
2023-01-29T19:51:34.831Z,80.68
2023-01-29T19:54:01.629Z,80.83
2023-01-29T19:56:28.292Z,80.66
2023-01-29T19:58:56.547Z,80.59
2023-01-29T20:01:23.947Z,80.31
2023-01-29T20:03:51.428Z,80.38
2023-01-29T20:06:19.995Z,80.21
2023-01-29T20:08:46.911Z,80.46
2023-01-29T20:11:14.351Z,80.30
2023-01-29T20:13:40.995Z,80.47
2023-01-29T20:16:09.406Z,80.30
2023-01-29T20:18:36.194Z,80.39
2023-01-29T20:21:06.627Z,80.68
2023-01-29T20:23:38.133Z,80.78
2023-01-29T20:26:06.359Z,80.78
2023-01-29T20:28:33.634Z,80.81
2023-01-29T20:31:00.666Z,80.73
2023-01-29T20:33:28.667Z,80.38
2023-01-29T20:35:56.311Z,80.93
2023-01-29T20:38:23.837Z,80.62
2023-01-29T20:40:50.447Z,80.50
2023-01-29T20:43:17.077Z,80.82
2023-01-29T20:45:43.837Z,80.83
2023-01-29T20:48:10.564Z,80.47
2023-01-29T20:50:38.678Z,80.67
2023-01-29T20:53:05.301Z,80.65
2023-01-29T20:55:32.090Z,80.44
2023-01-29T20:58:06.095Z,80.29
2023-01-29T21:00:33.576Z,80.52
2023-01-29T21:03:00.210Z,80.34
2023-01-29T21:05:26.912Z,80.54
2023-01-29T21:07:55.507Z,80.21
2023-01-29T21:10:22.251Z,80.34
2023-01-29T21:12:48.895Z,79.97
2023-01-29T21:15:15.607Z,79.97
2023-01-29T21:17:42.240Z,80.41
2023-01-29T21:20:10.060Z,79.96
2023-01-29T21:22:36.874Z,79.86
2023-01-29T21:25:05.800Z,80.11
2023-01-29T21:27:32.406Z,80.31
2023-01-29T21:29:58.987Z,80.36
2023-01-29T21:32:25.666Z,80.03
2023-01-29T21:34:52.734Z,80.41
2023-01-29T21:37:19.423Z,80.32
2023-01-29T21:39:46.130Z,79.99
2023-01-29T21:42:14.174Z,80.69
2023-01-29T21:44:40.817Z,80.32
2023-01-29T21:47:07.474Z,80.33
2023-01-29T21:49:34.051Z,80.51
2023-01-29T21:52:00.617Z,80.39
2023-01-29T21:54:27.185Z,80.59
2023-01-29T21:56:53.846Z,80.59
2023-01-29T21:59:21.862Z,80.62
2023-01-29T22:01:48.904Z,80.17
2023-01-29T22:04:15.587Z,80.55
2023-01-29T22:06:42.275Z,80.27
2023-01-29T22:09:08.913Z,80.13
2023-01-29T22:11:35.607Z,80.24
2023-01-29T22:14:02.195Z,80.10
2023-01-29T22:16:30.201Z,80.27
2023-01-29T22:18:56.827Z,80.51
2023-01-29T22:21:23.434Z,80.46
2023-01-29T22:23:50.123Z,80.31
2023-01-29T22:26:17.018Z,80.07
2023-01-29T22:28:43.762Z,79.95
2023-01-29T22:31:10.508Z,79.89
2023-01-29T22:33:38.509Z,79.68
2023-01-29T22:36:05.891Z,79.90
2023-01-29T22:38:32.486Z,79.78
2023-01-29T22:41:00.368Z,79.81
2023-01-29T22:43:27.109Z,79.38
2023-01-29T22:45:53.739Z,79.58
2023-01-29T22:48:22.214Z,79.43
2023-01-29T22:50:56.212Z,79.32
2023-01-29T22:53:22.834Z,79.41
2023-01-29T22:55:53.691Z,79.22
2023-01-29T22:58:20.332Z,78.97
2023-01-29T23:00:50.048Z,79.06
2023-01-29T23:03:16.743Z,79.16
2023-01-29T23:05:43.418Z,78.73
2023-01-29T23:08:11.513Z,78.82
2023-01-29T23:10:38.309Z,78.41
2023-01-29T23:13:04.914Z,78.69
2023-01-29T23:15:31.530Z,78.72
2023-01-29T23:17:58.312Z,78.77
2023-01-29T23:20:24.988Z,78.85
2023-01-29T23:22:51.722Z,78.43
2023-01-29T23:25:19.765Z,78.00
2023-01-29T23:27:47.210Z,78.39
2023-01-29T23:30:14.051Z,78.33
2023-01-29T23:32:40.813Z,77.73
2023-01-29T23:35:08.258Z,78.36
2023-01-29T23:37:34.886Z,78.32
2023-01-29T23:40:01.625Z,77.91
2023-01-29T23:42:29.627Z,77.68
2023-01-29T23:44:56.375Z,77.82
2023-01-29T23:47:22.963Z,77.79
2023-01-29T23:49:49.798Z,77.61
2023-01-29T23:52:16.377Z,77.55
2023-01-29T23:54:43.042Z,77.90
2023-01-29T23:57:09.940Z,77.82
2023-01-29T23:59:38.060Z,77.70
